createdAt,value
2018-05-17T00:04:38.928Z,8.48
2018-05-17T00:10:33.947Z,4.67
2018-05-17T00:16:28.861Z,6.37
2018-05-17T00:22:23.887Z,6.58
2018-05-17T00:28:18.913Z,6.47
2018-05-17T00:34:13.882Z,6.24
2018-05-17T00:40:08.913Z,3.36
2018-05-17T00:46:03.900Z,10.82
2018-05-17T00:51:58.947Z,4.96
2018-05-17T00:57:53.918Z,4.13
2018-05-17T01:03:48.890Z,6.08
2018-05-17T01:09:43.911Z,4.55
2018-05-17T01:15:38.935Z,3.67
2018-05-17T01:21:33.885Z,5.29
2018-05-17T01:27:28.967Z,6.29
2018-05-17T01:33:23.920Z,4.08
2018-05-17T01:39:18.955Z,2.69
2018-05-17T01:45:13.942Z,3.7
2018-05-17T01:51:08.891Z,4.48
2018-05-17T01:57:03.913Z,4.87
2018-05-17T02:02:58.898Z,4.04
2018-05-17T02:08:53.940Z,5.52
2018-05-17T02:14:48.921Z,7.8
2018-05-17T02:20:43.936Z,4.43
2018-05-17T02:26:38.928Z,8.14
2018-05-17T02:32:34.018Z,6.77
2018-05-17T02:38:28.948Z,6.4
2018-05-17T02:44:23.943Z,4.71
2018-05-17T02:50:18.947Z,2.82
2018-05-17T02:56:13.922Z,5.03
2018-05-17T03:02:08.948Z,3.11
2018-05-17T03:08:03.953Z,10.26
2018-05-17T03:13:58.931Z,3.91
2018-05-17T03:19:53.977Z,5.07
2018-05-17T03:25:48.935Z,2.77
2018-05-17T03:31:43.963Z,5.77
2018-05-17T03:37:38.934Z,4.69
2018-05-17T03:43:33.968Z,3.72
2018-05-17T03:49:29.009Z,6.8
2018-05-17T03:55:23.962Z,4.79
2018-05-17T04:01:18.955Z,3.84
2018-05-17T04:07:13.917Z,5.23
2018-05-17T04:13:08.949Z,3.59
2018-05-17T04:19:03.972Z,9.06
2018-05-17T04:24:58.963Z,4.63
2018-05-17T04:30:53.976Z,10.3
2018-05-17T04:36:48.964Z,12.73
2018-05-17T04:42:44.062Z,7.33
2018-05-17T04:48:39.054Z,4.62
2018-05-17T04:54:33.988Z,6.79
2018-05-17T05:00:29.012Z,6.5
2018-05-17T05:06:23.976Z,7.83
2018-05-17T05:12:19.024Z,5.34
2018-05-17T05:18:13.987Z,4.53
2018-05-17T05:24:08.988Z,5.17
2018-05-17T05:30:04.194Z,11.72
2018-05-17T05:35:58.972Z,6.75
2018-05-17T05:41:53.982Z,7.35
2018-05-17T05:47:48.979Z,10.26
2018-05-17T05:53:43.991Z,6.06
2018-05-17T05:59:39.018Z,9.02
2018-05-17T06:05:33.982Z,5.51
2018-05-17T06:11:28.991Z,6.07
2018-05-17T06:17:24.027Z,6.98
2018-05-17T06:23:18.991Z,9.23
2018-05-17T06:29:13.960Z,7.17
2018-05-17T06:35:08.982Z,6.76
2018-05-17T06:41:04.031Z,10.63
2018-05-17T06:46:58.988Z,7.7
2018-05-17T06:52:53.995Z,9.93
2018-05-17T06:58:49.004Z,6.83
2018-05-17T07:04:43.983Z,8.05
2018-05-17T07:10:39.034Z,8.06
2018-05-17T07:16:33.988Z,28.59
2018-05-17T07:22:29.011Z,33.4
2018-05-17T07:28:24.032Z,35.99
2018-05-17T07:34:19.015Z,26.43
2018-05-17T07:40:14.006Z,23.35
2018-05-17T07:46:08.993Z,15.23
2018-05-17T07:52:04.127Z,20.52
2018-05-17T07:57:59.054Z,14.18
2018-05-17T08:03:54.065Z,12.2
2018-05-17T08:09:49.117Z,12.08
2018-05-17T08:15:43.999Z,11.88
2018-05-17T08:21:39.049Z,16.44
2018-05-17T08:27:34.083Z,14.99
2018-05-17T08:33:29.044Z,9.91
2018-05-17T08:39:24.122Z,13.28
2018-05-17T08:45:19.097Z,12.02
2018-05-17T08:51:14.037Z,9.15
2018-05-17T08:57:09.038Z,13.11
2018-05-17T09:03:04.005Z,9.69
2018-05-17T09:08:59.096Z,13.02
2018-05-17T09:14:54.130Z,12.44
2018-05-17T09:20:49.012Z,10
2018-05-17T09:26:44.064Z,11.84
2018-05-17T09:32:39.065Z,12.92
2018-05-17T09:38:34.118Z,12.39
2018-05-17T09:44:29.076Z,14.54
2018-05-17T09:50:24.101Z,15.05
2018-05-17T09:56:19.050Z,14.15
2018-05-17T10:02:14.027Z,8.25
2018-05-17T10:08:09.070Z,14.34
2018-05-17T10:14:04.050Z,7.04
2018-05-17T10:19:59.076Z,8.91
2018-05-17T10:25:54.056Z,5.83
2018-05-17T10:31:49.060Z,10.19
2018-05-17T10:37:44.094Z,11.78
2018-05-17T10:43:39.081Z,16.07
2018-05-17T10:49:34.071Z,15.96
2018-05-17T10:55:29.082Z,15.4
2018-05-17T11:01:24.049Z,10.57
2018-05-17T11:07:19.150Z,9.04
2018-05-17T11:13:14.058Z,13.6
2018-05-17T11:19:09.065Z,12.66
2018-05-17T11:25:04.132Z,12.75
2018-05-17T11:30:59.174Z,8.51
2018-05-17T11:36:54.115Z,11.13
2018-05-17T11:42:49.073Z,10.21
2018-05-17T11:48:44.102Z,6.62
2018-05-17T11:54:39.123Z,8.55
2018-05-17T12:00:34.150Z,8.17
2018-05-17T12:12:24.111Z,6.46
2018-05-17T12:12:24.176Z,7.19
2018-05-17T12:18:19.112Z,8.88
2018-05-17T12:24:14.154Z,8.59
2018-05-17T12:30:09.159Z,9.31
2018-05-17T12:36:04.120Z,12.08
2018-05-17T12:41:59.120Z,10.48
2018-05-17T12:47:54.293Z,10.14
2018-05-17T12:53:49.111Z,7.57
2018-05-17T12:59:44.128Z,8.94
2018-05-17T13:05:39.137Z,12.11
2018-05-17T13:11:34.137Z,10.92
2018-05-17T13:17:29.143Z,7.49
2018-05-17T13:23:24.143Z,14.09
2018-05-17T13:29:19.168Z,14.27
2018-05-17T13:35:14.175Z,14.69
2018-05-17T13:41:09.259Z,22.84
2018-05-17T13:47:04.170Z,18.71
2018-05-17T13:52:59.140Z,21.53
2018-05-17T13:58:54.133Z,21.23
2018-05-17T14:04:49.175Z,27.8
2018-05-17T14:10:44.156Z,18.31
2018-05-17T14:16:39.172Z,15.02
2018-05-17T14:22:34.468Z,20.63
2018-05-17T14:28:29.151Z,20
2018-05-17T14:34:24.227Z,33.54
2018-05-17T14:40:19.150Z,28.99
2018-05-17T14:46:14.292Z,20.32
2018-05-17T14:52:09.149Z,17.47
2018-05-17T14:58:04.176Z,11.4
2018-05-17T15:03:59.180Z,7.31
2018-05-17T15:09:54.156Z,12.86
2018-05-17T15:15:49.177Z,9.64
2018-05-17T15:21:44.161Z,6.51
2018-05-17T15:27:39.209Z,11.31
2018-05-17T15:33:34.180Z,17.33
2018-05-17T15:39:29.160Z,9.8
2018-05-17T15:45:24.165Z,13.94
2018-05-17T15:51:19.276Z,14.37
2018-05-17T15:57:14.209Z,15.18
2018-05-17T16:03:09.196Z,15.44
2018-05-17T16:09:04.213Z,11.21
2018-05-17T16:14:59.259Z,9.4
2018-05-17T16:20:54.210Z,6.69
2018-05-17T16:26:49.204Z,8.5
2018-05-17T16:32:44.220Z,4.37
2018-05-17T16:38:39.194Z,4.12
2018-05-17T16:44:34.185Z,6.46
2018-05-17T16:50:29.243Z,4.76
2018-05-17T16:56:24.208Z,4.93
2018-05-17T17:02:19.250Z,5.95
2018-05-17T17:08:14.220Z,8.5
2018-05-17T17:14:09.226Z,5.74
2018-05-17T17:20:04.200Z,6.33
2018-05-17T17:25:59.197Z,7.02
2018-05-17T17:31:54.265Z,7.21
2018-05-17T17:37:49.212Z,6.76
2018-05-17T17:43:44.264Z,10.84
2018-05-17T17:49:39.291Z,8.01
2018-05-17T17:55:34.254Z,7.48
2018-05-17T18:01:29.235Z,5.56
2018-05-17T18:07:24.247Z,6.73
2018-05-17T18:13:19.228Z,5.78
2018-05-17T18:19:14.277Z,5.11
2018-05-17T18:25:09.228Z,4.97
2018-05-17T18:31:04.241Z,4.74
2018-05-17T18:36:59.225Z,6.55
2018-05-17T18:42:54.247Z,9.12
2018-05-17T18:48:49.288Z,9.97
2018-05-17T18:54:44.289Z,3.8
2018-05-17T19:00:39.222Z,6.4
2018-05-17T19:06:34.239Z,5.1
2018-05-17T19:12:29.302Z,7.36
2018-05-17T19:18:24.236Z,10.87
2018-05-17T19:24:19.343Z,8.87
2018-05-17T19:30:14.279Z,4.99
2018-05-17T19:36:09.245Z,12.69
2018-05-17T19:42:04.286Z,20.87
2018-05-17T19:47:59.285Z,14.05
2018-05-17T19:53:54.261Z,14.02
2018-05-17T19:59:49.298Z,16.52
2018-05-17T20:05:44.257Z,9.97
2018-05-17T20:11:39.237Z,8.29
2018-05-17T20:23:29.276Z,12.76
2018-05-17T20:23:29.324Z,9.76
2018-05-17T20:29:24.258Z,12.27
2018-05-17T20:35:19.257Z,11.56
2018-05-17T20:41:14.260Z,6.25
2018-05-17T20:47:09.295Z,8.85
2018-05-17T20:53:04.353Z,8.16
2018-05-17T20:58:59.252Z,8.43
2018-05-17T21:04:54.276Z,7.52
2018-05-17T21:10:49.274Z,8.36
2018-05-17T21:16:44.286Z,5.74
2018-05-17T21:22:39.300Z,10.9
2018-05-17T21:28:34.292Z,8.42
2018-05-17T21:34:29.296Z,12.75
2018-05-17T21:40:24.326Z,9.41
2018-05-17T21:46:19.296Z,8.44
2018-05-17T21:52:14.321Z,10.57
2018-05-17T21:58:09.355Z,7.45
2018-05-17T22:04:04.286Z,8.95
2018-05-17T22:09:59.286Z,5.33
2018-05-17T22:15:54.319Z,10.74
2018-05-17T22:21:49.266Z,6.5
2018-05-17T22:27:44.296Z,5.31
2018-05-17T22:33:39.344Z,7.7
2018-05-17T22:39:34.290Z,6.87
2018-05-17T22:45:29.317Z,8.74
2018-05-17T22:51:24.339Z,7.73
2018-05-17T22:57:19.310Z,12.25
2018-05-17T23:03:14.279Z,10.57
2018-05-17T23:09:09.320Z,14.31
2018-05-17T23:15:04.281Z,10.37
2018-05-17T23:20:59.977Z,12.05
2018-05-17T23:26:54.316Z,11.09
2018-05-17T23:32:49.323Z,9.08
2018-05-17T23:38:44.319Z,12.55
2018-05-17T23:44:39.329Z,9.95
2018-05-17T23:50:37.971Z,10.23
2018-05-17T23:56:29.333Z,14.73
